createdAt,value
2022-08-28T00:00:25.530Z,89.18
2022-08-28T00:02:54.053Z,46.50
2022-08-28T00:05:24.952Z,49.28
2022-08-28T00:07:51.834Z,49.40
2022-08-28T00:10:22.343Z,44.08
2022-08-28T00:12:51.289Z,41.03
2022-08-28T00:15:25.603Z,39.78
2022-08-28T00:17:52.339Z,51.05
2022-08-28T00:20:20.700Z,55.33
2022-08-28T00:22:48.604Z,73.07
2022-08-28T00:25:19.835Z,47.63
2022-08-28T00:27:55.610Z,48.88
2022-08-28T00:30:25.480Z,44.85
2022-08-28T00:32:54.414Z,54.43
2022-08-28T00:35:23.684Z,36.28
2022-08-28T00:37:51.811Z,38.55
2022-08-28T00:40:30.586Z,33.10
2022-08-28T00:43:02.315Z,52.78
2022-08-28T00:45:30.029Z,56.17
2022-08-28T00:47:57.051Z,42.53
2022-08-28T00:50:27.055Z,36.55
2022-08-28T00:52:59.843Z,45.22
2022-08-28T00:55:28.808Z,48.25
2022-08-28T00:57:59.545Z,33.40
2022-08-28T01:00:34.907Z,62.20
2022-08-28T01:03:02.940Z,32.47
2022-08-28T01:05:29.920Z,80.72
2022-08-28T01:07:58.802Z,33.45
2022-08-28T01:10:29.127Z,31.80
2022-08-28T01:12:58.120Z,66.25
2022-08-28T01:15:30.055Z,40.28
2022-08-28T01:18:07.384Z,51.30
2022-08-28T01:20:38.076Z,34.95
2022-08-28T01:23:28.280Z,40.90
2022-08-28T01:25:55.088Z,30.42
2022-08-28T01:28:21.829Z,39.85
2022-08-28T01:30:49.309Z,39.65
2022-08-28T01:33:16.099Z,34.17
2022-08-28T01:35:45.490Z,67.20
2022-08-28T01:38:12.453Z,73.90
2022-08-28T01:40:48.171Z,89.95
2022-08-28T01:43:18.524Z,54.17
2022-08-28T01:45:48.845Z,78.93
2022-08-28T01:48:16.581Z,88.37
2022-08-28T01:50:43.652Z,95.35
2022-08-28T01:53:15.225Z,42.22
2022-08-28T01:55:42.898Z,40.25
2022-08-28T01:58:10.667Z,33.85
2022-08-28T02:00:38.781Z,36.87
2022-08-28T02:03:06.964Z,32.80
2022-08-28T02:05:34.716Z,32.47
2022-08-28T02:08:04.117Z,33.58
2022-08-28T02:10:34.967Z,36.90
2022-08-28T02:13:03.896Z,31.30
2022-08-28T02:15:32.711Z,29.27
2022-08-28T02:17:59.876Z,28.08
2022-08-28T02:20:29.005Z,31.08
2022-08-28T02:22:57.721Z,33.30
2022-08-28T02:25:24.957Z,29.60
2022-08-28T02:27:51.672Z,33.58
2022-08-28T02:30:18.584Z,41.92
2022-08-28T02:32:46.233Z,43.75
2022-08-28T02:35:16.092Z,42.08
2022-08-28T02:37:44.434Z,40.30
2022-08-28T02:40:14.341Z,36.67
2022-08-28T02:42:42.210Z,32.80
2022-08-28T02:45:11.748Z,34.33
2022-08-28T02:47:43.101Z,160.88
2022-08-28T02:50:12.995Z,44.13
2022-08-28T02:52:41.280Z,84.15
2022-08-28T02:55:09.856Z,37.13
2022-08-28T02:57:36.574Z,36.53
2022-08-28T03:00:06.464Z,35.50
2022-08-28T03:02:33.207Z,52.80
2022-08-28T03:05:00.500Z,47.85
2022-08-28T03:07:29.323Z,48.55
2022-08-28T03:09:56.417Z,35.63
2022-08-28T03:12:26.197Z,31.13
2022-08-28T03:14:54.297Z,37.17
2022-08-28T03:17:22.127Z,37.58
2022-08-28T03:19:52.200Z,55.35
2022-08-28T03:22:42.897Z,36.65
2022-08-28T03:25:10.752Z,29.23
2022-08-28T03:27:37.656Z,42.47
2022-08-28T03:30:07.886Z,31.83
2022-08-28T03:32:34.785Z,41.95
2022-08-28T03:35:01.992Z,29.38
2022-08-28T03:37:28.806Z,28.30
2022-08-28T03:39:55.579Z,26.60
2022-08-28T03:42:23.060Z,25.48
2022-08-28T03:44:49.841Z,25.70
2022-08-28T03:47:16.837Z,24.10
2022-08-28T03:49:45.347Z,24.90
2022-08-28T03:52:12.710Z,70.17
2022-08-28T03:54:39.444Z,122.18
2022-08-28T03:57:07.249Z,66.65
2022-08-28T03:59:35.744Z,34.40
2022-08-28T04:02:02.436Z,31.15
2022-08-28T04:04:29.099Z,25.37
2022-08-28T04:06:55.797Z,28.50
2022-08-28T04:09:22.516Z,26.40
2022-08-28T04:11:49.146Z,28.63
2022-08-28T04:14:15.808Z,35.00
2022-08-28T04:16:42.591Z,37.23
2022-08-28T04:19:09.262Z,29.80
2022-08-28T04:21:36.000Z,31.20
2022-08-28T04:24:04.971Z,43.15
2022-08-28T04:26:36.700Z,31.30
2022-08-28T04:29:04.585Z,29.30
2022-08-28T04:31:32.762Z,27.80
2022-08-28T04:34:01.731Z,27.27
2022-08-28T04:36:29.303Z,26.83
2022-08-28T04:38:58.527Z,25.20
2022-08-28T04:41:25.976Z,27.60
2022-08-28T04:43:53.889Z,26.35
2022-08-28T04:46:20.688Z,27.25
2022-08-28T04:48:47.449Z,26.98
2022-08-28T04:51:17.477Z,24.13
2022-08-28T04:53:44.314Z,26.47
2022-08-28T04:56:13.372Z,24.25
2022-08-28T04:58:42.525Z,21.58
2022-08-28T05:01:12.881Z,50.10
2022-08-28T05:03:40.086Z,93.20
2022-08-28T05:06:07.469Z,167.07
2022-08-28T05:08:34.441Z,51.78
2022-08-28T05:11:24.507Z,32.17
2022-08-28T05:14:04.412Z,24.77
2022-08-28T05:16:32.646Z,22.40
2022-08-28T05:19:03.333Z,19.73
2022-08-28T05:21:30.077Z,20.13
2022-08-28T05:23:58.188Z,39.83
2022-08-28T05:26:27.092Z,43.83
2022-08-28T05:28:57.879Z,50.10
2022-08-28T05:31:26.068Z,89.53
2022-08-28T05:33:53.505Z,43.75
2022-08-28T05:36:22.763Z,79.88
2022-08-28T05:38:51.448Z,80.75
2022-08-28T05:41:24.446Z,115.95
2022-08-28T05:43:52.537Z,164.80
2022-08-28T05:46:20.641Z,173.38
2022-08-28T05:48:49.352Z,140.57
2022-08-28T05:51:20.076Z,81.22
2022-08-28T05:53:50.104Z,87.47
2022-08-28T05:56:26.613Z,102.23
2022-08-28T05:58:53.282Z,112.25
2022-08-28T06:01:23.641Z,130.50
2022-08-28T06:03:55.172Z,124.93
2022-08-28T06:06:24.563Z,155.65
2022-08-28T06:08:58.250Z,82.60
2022-08-28T06:11:30.921Z,105.43
2022-08-28T06:14:00.781Z,28.95
2022-08-28T06:16:30.131Z,31.05
2022-08-28T06:18:57.663Z,74.93
2022-08-28T06:21:24.772Z,79.13
2022-08-28T06:23:51.930Z,98.38
2022-08-28T06:26:18.849Z,71.97
2022-08-28T06:28:45.650Z,63.50
2022-08-28T06:31:24.602Z,23.48
2022-08-28T06:33:54.088Z,22.53
2022-08-28T06:36:21.104Z,23.10
2022-08-28T06:38:47.748Z,20.58
2022-08-28T06:41:15.615Z,24.50
2022-08-28T06:43:42.829Z,23.00
2022-08-28T06:46:09.681Z,22.90
2022-08-28T06:48:36.421Z,19.85
2022-08-28T06:51:06.677Z,38.25
2022-08-28T06:53:33.572Z,17.60
2022-08-28T06:56:25.596Z,16.73
2022-08-28T06:58:56.646Z,16.77
2022-08-28T07:01:29.044Z,17.90
2022-08-28T07:03:59.537Z,17.67
2022-08-28T07:06:27.879Z,17.85
2022-08-28T07:08:54.586Z,15.48
2022-08-28T07:11:28.788Z,17.10
2022-08-28T07:13:56.635Z,15.95
2022-08-28T07:16:27.323Z,16.05
2022-08-28T07:18:54.280Z,16.30
2022-08-28T07:21:21.442Z,15.85
2022-08-28T07:23:48.477Z,14.37
2022-08-28T07:26:19.203Z,14.65
2022-08-28T07:28:46.428Z,14.95
2022-08-28T07:31:19.746Z,15.50
2022-08-28T07:33:46.900Z,15.63
2022-08-28T07:36:29.452Z,14.93
2022-08-28T07:38:59.426Z,15.15
2022-08-28T07:41:29.105Z,14.13
2022-08-28T07:44:15.056Z,14.02
2022-08-28T07:46:41.959Z,12.20
2022-08-28T07:49:09.302Z,15.33
2022-08-28T07:51:36.113Z,14.57
2022-08-28T07:54:04.022Z,16.27
2022-08-28T07:56:31.145Z,15.15
2022-08-28T07:58:58.907Z,14.57
2022-08-28T08:01:30.565Z,15.97
2022-08-28T08:04:01.623Z,14.38
2022-08-28T08:06:33.778Z,12.73
2022-08-28T08:09:02.476Z,14.02
2022-08-28T08:11:32.305Z,13.57
2022-08-28T08:14:05.486Z,12.37
2022-08-28T08:16:39.591Z,14.27
2022-08-28T08:19:09.874Z,12.75
2022-08-28T08:21:37.799Z,13.30
2022-08-28T08:24:05.187Z,10.70
2022-08-28T08:26:33.040Z,10.50
2022-08-28T08:29:00.167Z,11.48
2022-08-28T08:31:32.649Z,11.25
2022-08-28T08:34:02.633Z,9.88
2022-08-28T08:36:31.438Z,9.00
2022-08-28T08:39:00.347Z,11.57
2022-08-28T08:41:34.962Z,8.60
2022-08-28T08:44:08.971Z,10.20
2022-08-28T08:47:11.796Z,11.38
2022-08-28T08:49:49.298Z,10.43
2022-08-28T08:52:29.031Z,10.00
2022-08-28T08:55:23.471Z,10.07
2022-08-28T08:58:02.610Z,9.13
2022-08-28T09:00:33.800Z,10.80
2022-08-28T09:03:07.095Z,8.70
2022-08-28T09:05:42.567Z,11.13
2022-08-28T09:08:18.611Z,10.68
2022-08-28T09:11:07.058Z,11.40
2022-08-28T09:13:59.280Z,10.27
2022-08-28T09:16:32.566Z,9.45
2022-08-28T09:19:01.062Z,10.47
2022-08-28T09:21:32.314Z,10.38
2022-08-28T09:24:05.761Z,12.32
2022-08-28T09:26:34.609Z,9.55
2022-08-28T09:29:06.337Z,9.65
2022-08-28T09:31:41.234Z,8.70
2022-08-28T09:34:19.058Z,8.85
2022-08-28T09:36:45.957Z,7.78
2022-08-28T09:39:23.748Z,9.07
2022-08-28T09:42:14.484Z,9.50
2022-08-28T09:45:20.952Z,10.17
2022-08-28T09:47:50.810Z,10.20
2022-08-28T09:50:42.389Z,8.68
2022-08-28T09:53:09.006Z,8.55
2022-08-28T09:56:03.203Z,8.35
2022-08-28T09:58:41.278Z,8.53
2022-08-28T10:01:12.244Z,7.60
2022-08-28T10:04:08.100Z,9.45
2022-08-28T10:06:36.961Z,9.57
2022-08-28T10:09:11.555Z,8.52
2022-08-28T10:12:07.869Z,11.13
2022-08-28T10:14:40.214Z,6.70
2022-08-28T10:17:34.489Z,7.80
2022-08-28T10:20:09.961Z,7.90
2022-08-28T10:23:18.885Z,7.75
2022-08-28T10:26:16.454Z,6.90
2022-08-28T10:29:14.293Z,7.60
2022-08-28T10:31:53.499Z,7.53
2022-08-28T10:34:28.972Z,9.95
2022-08-28T10:37:11.106Z,7.65
2022-08-28T10:39:58.262Z,7.47
2022-08-28T10:42:35.866Z,9.15
2022-08-28T10:45:14.309Z,8.55
2022-08-28T10:47:45.731Z,10.15
2022-08-28T10:50:25.365Z,8.93
2022-08-28T10:53:03.176Z,8.37
2022-08-28T10:55:37.603Z,9.45
2022-08-28T10:58:24.877Z,8.60
2022-08-28T11:00:56.963Z,8.27
2022-08-28T11:03:35.469Z,8.07
2022-08-28T11:06:15.867Z,7.80
2022-08-28T11:08:52.886Z,8.60
2022-08-28T11:11:46.780Z,8.25
2022-08-28T11:14:24.716Z,7.68
2022-08-28T11:16:54.465Z,8.02
2022-08-28T11:19:48.038Z,9.87
2022-08-28T11:22:24.668Z,8.18
2022-08-28T11:25:09.771Z,8.27
2022-08-28T11:27:38.101Z,7.45
2022-08-28T11:30:15.132Z,7.38
2022-08-28T11:33:03.432Z,7.67
2022-08-28T11:35:30.051Z,6.82
2022-08-28T11:37:58.193Z,7.18
2022-08-28T11:40:30.680Z,8.55
2022-08-28T11:43:16.221Z,8.70
2022-08-28T11:45:46.608Z,8.73
2022-08-28T11:48:28.448Z,6.60
2022-08-28T11:51:06.330Z,9.10
2022-08-28T11:53:57.465Z,7.13
2022-08-28T11:56:42.333Z,8.57
2022-08-28T11:59:39.016Z,9.33
2022-08-28T12:02:45.792Z,9.85
2022-08-28T12:05:32.503Z,9.95
2022-08-28T12:08:03.994Z,9.38
2022-08-28T12:10:31.805Z,9.63
2022-08-28T12:13:03.856Z,8.60
2022-08-28T12:15:31.074Z,11.43
2022-08-28T12:18:03.767Z,9.70
2022-08-28T12:20:53.568Z,10.13
2022-08-28T12:23:35.264Z,8.90
2022-08-28T12:26:16.107Z,8.97
2022-08-28T12:28:59.650Z,8.55
2022-08-28T12:31:47.746Z,8.02
2022-08-28T12:34:24.269Z,8.23
2022-08-28T12:37:00.096Z,8.27
2022-08-28T12:39:29.013Z,9.33
2022-08-28T12:41:55.839Z,9.38
2022-08-28T12:44:25.967Z,8.50
2022-08-28T12:46:53.922Z,10.20
2022-08-28T12:49:35.651Z,9.65
2022-08-28T12:52:18.580Z,8.00
2022-08-28T12:54:46.683Z,10.63
2022-08-28T12:57:17.355Z,9.10
2022-08-28T12:59:50.051Z,9.18
2022-08-28T13:02:29.742Z,8.35
2022-08-28T13:05:03.024Z,9.03
2022-08-28T13:08:01.943Z,9.20
2022-08-28T13:10:41.737Z,9.00
2022-08-28T13:13:19.164Z,9.77
2022-08-28T13:15:48.762Z,10.93
2022-08-28T13:18:39.221Z,9.37
2022-08-28T13:21:30.800Z,8.82
2022-08-28T13:24:21.266Z,11.60
2022-08-28T13:27:03.806Z,9.25
2022-08-28T13:29:30.791Z,8.80
2022-08-28T13:32:00.469Z,7.80
2022-08-28T13:34:30.019Z,8.18
2022-08-28T13:37:02.410Z,8.27
2022-08-28T13:39:32.852Z,10.10
2022-08-28T13:42:06.997Z,7.70
2022-08-28T13:44:36.042Z,6.80
2022-08-28T13:47:06.779Z,8.10
2022-08-28T13:49:36.748Z,8.13
2022-08-28T13:52:06.751Z,7.03
2022-08-28T13:54:34.650Z,8.02
2022-08-28T13:57:03.122Z,8.67
2022-08-28T13:59:31.242Z,8.90
2022-08-28T14:02:18.922Z,8.85
2022-08-28T14:04:45.912Z,7.40
2022-08-28T14:07:13.885Z,8.45
2022-08-28T14:09:41.156Z,9.00
2022-08-28T14:12:09.849Z,9.95
2022-08-28T14:14:37.762Z,8.75
2022-08-28T14:17:05.077Z,10.13
2022-08-28T14:19:31.816Z,7.45
2022-08-28T14:21:59.182Z,8.13
2022-08-28T14:24:26.426Z,7.72
2022-08-28T14:26:54.383Z,9.00
2022-08-28T14:29:21.474Z,7.75
2022-08-28T14:31:48.873Z,7.65
2022-08-28T14:34:19.945Z,8.37
2022-08-28T14:36:55.022Z,7.35
2022-08-28T14:39:26.714Z,6.63
2022-08-28T14:41:54.744Z,8.75
2022-08-28T14:44:23.147Z,8.55
2022-08-28T14:46:51.710Z,7.57
2022-08-28T14:49:24.771Z,8.18
2022-08-28T14:51:52.802Z,8.35
2022-08-28T14:54:22.833Z,10.23
2022-08-28T14:56:50.931Z,6.68
2022-08-28T14:59:24.232Z,6.80
2022-08-28T15:01:53.287Z,6.22
2022-08-28T15:04:22.865Z,8.20
2022-08-28T15:06:51.303Z,8.57
2022-08-28T15:09:19.065Z,6.97
2022-08-28T15:11:46.101Z,8.13
2022-08-28T15:14:13.289Z,6.72
2022-08-28T15:16:43.030Z,7.03
2022-08-28T15:19:12.346Z,7.43
2022-08-28T15:21:46.069Z,9.32
2022-08-28T15:24:14.757Z,7.23
2022-08-28T15:26:41.449Z,6.18
2022-08-28T15:29:08.410Z,6.35
2022-08-28T15:31:38.081Z,9.20
2022-08-28T15:34:07.295Z,8.18
2022-08-28T15:36:41.658Z,6.57
2022-08-28T15:39:27.226Z,7.43
2022-08-28T15:41:54.765Z,7.43
2022-08-28T15:44:21.503Z,8.38
2022-08-28T15:46:54.389Z,9.88
2022-08-28T15:49:24.912Z,10.87
2022-08-28T15:51:52.642Z,10.00
2022-08-28T15:54:22.097Z,11.23
2022-08-28T15:56:50.805Z,8.50
2022-08-28T15:59:21.381Z,8.52
2022-08-28T16:01:50.739Z,8.67
2022-08-28T16:04:17.811Z,9.32
2022-08-28T16:06:45.298Z,8.70
2022-08-28T16:09:13.014Z,8.73
2022-08-28T16:11:42.518Z,9.05
2022-08-28T16:14:10.614Z,8.27
2022-08-28T16:16:37.414Z,9.45
2022-08-28T16:19:05.325Z,9.45
2022-08-28T16:21:32.960Z,8.40
2022-08-28T16:24:00.197Z,8.10
2022-08-28T16:26:27.626Z,10.00
2022-08-28T16:28:54.367Z,9.35
2022-08-28T16:31:21.491Z,10.32
2022-08-28T16:33:49.688Z,10.00
2022-08-28T16:36:17.137Z,9.27
2022-08-28T16:38:46.594Z,8.33
2022-08-28T16:41:20.479Z,10.13
2022-08-28T16:43:48.963Z,7.47
2022-08-28T16:46:19.420Z,9.00
2022-08-28T16:48:46.586Z,8.48
2022-08-28T16:51:14.130Z,9.17
2022-08-28T16:53:42.529Z,8.05
2022-08-28T16:56:10.984Z,8.70
2022-08-28T16:58:42.514Z,8.52
2022-08-28T17:01:10.918Z,8.68
2022-08-28T17:03:39.993Z,8.70
2022-08-28T17:06:19.020Z,8.30
2022-08-28T17:08:46.455Z,9.23
2022-08-28T17:11:13.432Z,8.60
2022-08-28T17:13:40.445Z,9.38
2022-08-28T17:16:08.246Z,10.07
2022-08-28T17:18:36.106Z,9.50
2022-08-28T17:21:21.887Z,8.43
2022-08-28T17:23:49.707Z,9.30
2022-08-28T17:26:17.450Z,8.77
2022-08-28T17:28:44.576Z,7.97
2022-08-28T17:31:12.205Z,7.50
2022-08-28T17:33:41.233Z,8.00
2022-08-28T17:36:15.323Z,9.30
2022-08-28T17:38:56.551Z,8.38
2022-08-28T17:41:23.182Z,9.23
2022-08-28T17:43:49.895Z,9.48
2022-08-28T17:46:16.664Z,11.18
2022-08-28T17:48:43.400Z,8.93
2022-08-28T17:51:21.201Z,8.98
2022-08-28T17:54:07.782Z,9.03
2022-08-28T17:56:36.024Z,9.50
2022-08-28T17:59:03.038Z,8.93
2022-08-28T18:01:29.863Z,9.40
2022-08-28T18:03:56.657Z,9.93
2022-08-28T18:06:23.700Z,9.50
2022-08-28T18:08:51.843Z,10.48
2022-08-28T18:11:19.160Z,11.70
2022-08-28T18:13:46.553Z,13.70
2022-08-28T18:16:13.922Z,11.68
2022-08-28T18:18:41.846Z,10.57
2022-08-28T18:21:13.170Z,10.10
2022-08-28T18:23:40.285Z,11.15
2022-08-28T18:26:08.280Z,10.90
2022-08-28T18:28:36.801Z,10.18
2022-08-28T18:31:06.040Z,12.43
2022-08-28T18:33:33.776Z,11.73
2022-08-28T18:36:00.476Z,9.82
2022-08-28T18:38:28.086Z,12.35
2022-08-28T18:40:55.476Z,11.90
2022-08-28T18:43:22.525Z,11.20
2022-08-28T18:45:49.402Z,10.35
2022-08-28T18:48:16.553Z,11.93
2022-08-28T18:50:46.441Z,14.00
2022-08-28T18:53:15.158Z,11.77
2022-08-28T18:55:41.851Z,12.37
2022-08-28T18:58:11.098Z,10.30
2022-08-28T19:00:43.032Z,11.52
2022-08-28T19:03:10.459Z,13.77
2022-08-28T19:05:38.742Z,10.07
2022-08-28T19:08:06.154Z,10.87
2022-08-28T19:10:34.934Z,12.15
2022-08-28T19:13:02.428Z,11.18
2022-08-28T19:15:30.234Z,10.60
2022-08-28T19:18:00.171Z,9.98
2022-08-28T19:20:28.120Z,13.83
2022-08-28T19:22:58.418Z,10.70
2022-08-28T19:25:29.375Z,11.07
2022-08-28T19:28:01.488Z,10.60
2022-08-28T19:30:32.759Z,10.20
2022-08-28T19:33:00.228Z,11.10
2022-08-28T19:35:26.997Z,11.18
2022-08-28T19:37:54.281Z,12.20
2022-08-28T19:40:21.747Z,13.68
2022-08-28T19:42:49.924Z,10.60
2022-08-28T19:45:17.945Z,11.27
2022-08-28T19:47:45.716Z,10.65
2022-08-28T19:50:14.434Z,11.02
2022-08-28T19:52:43.073Z,12.73
2022-08-28T19:55:17.598Z,12.80
2022-08-28T19:57:46.155Z,12.50
2022-08-28T20:00:15.336Z,12.45
2022-08-28T20:02:42.201Z,12.35
2022-08-28T20:05:09.979Z,13.02
2022-08-28T20:07:36.779Z,14.50
2022-08-28T20:10:04.477Z,13.83
2022-08-28T20:12:31.152Z,12.95
2022-08-28T20:15:02.677Z,13.98
2022-08-28T20:17:30.060Z,12.95
2022-08-28T20:20:02.285Z,14.07
2022-08-28T20:22:31.780Z,13.33
2022-08-28T20:24:59.504Z,14.13
2022-08-28T20:27:26.487Z,13.60
2022-08-28T20:29:53.169Z,10.90
2022-08-28T20:32:20.277Z,14.68
2022-08-28T20:34:47.254Z,14.60
2022-08-28T20:37:16.854Z,13.38
2022-08-28T20:39:43.733Z,13.98
2022-08-28T20:42:11.677Z,12.45
2022-08-28T20:44:38.497Z,13.13
2022-08-28T20:47:05.707Z,12.30
2022-08-28T20:49:32.415Z,13.23
2022-08-28T20:52:05.767Z,13.27
2022-08-28T20:54:36.917Z,13.82
2022-08-28T20:57:07.810Z,12.80
2022-08-28T20:59:39.963Z,13.60
2022-08-28T21:02:15.040Z,13.60
2022-08-28T21:04:43.696Z,13.10
2022-08-28T21:07:11.113Z,13.88
2022-08-28T21:10:04.519Z,15.07
2022-08-28T21:12:25.220Z,12.77
2022-08-28T21:14:52.907Z,13.65
2022-08-28T21:17:29.059Z,21.00
2022-08-28T21:19:56.619Z,34.20
2022-08-28T21:22:23.346Z,25.75
2022-08-28T21:24:50.097Z,14.53
2022-08-28T21:27:18.463Z,16.00
2022-08-28T21:29:45.878Z,14.43
2022-08-28T21:32:12.738Z,12.68
2022-08-28T21:34:39.462Z,15.05
2022-08-28T21:37:06.475Z,13.37
2022-08-28T21:39:34.549Z,13.23
2022-08-28T21:42:01.220Z,13.45
2022-08-28T21:44:27.967Z,13.25
2022-08-28T21:46:54.676Z,12.55
2022-08-28T21:49:22.643Z,12.93
2022-08-28T21:51:49.781Z,12.50
2022-08-28T21:54:16.654Z,14.25
2022-08-28T21:56:43.503Z,13.07
2022-08-28T21:59:10.160Z,12.15
2022-08-28T22:01:37.201Z,14.07
2022-08-28T22:04:04.817Z,15.20
2022-08-28T22:06:31.757Z,13.85
2022-08-28T22:08:58.441Z,11.43
2022-08-28T22:11:26.824Z,12.45
2022-08-28T22:13:55.387Z,14.07
2022-08-28T22:16:23.259Z,16.02
2022-08-28T22:18:50.729Z,11.77
2022-08-28T22:21:38.905Z,13.85
2022-08-28T22:24:06.292Z,13.48
2022-08-28T22:26:33.065Z,14.30
2022-08-28T22:29:00.183Z,12.65
2022-08-28T22:31:27.258Z,13.30
2022-08-28T22:33:54.172Z,13.82
2022-08-28T22:36:22.276Z,15.68
2022-08-28T22:38:53.065Z,12.97
2022-08-28T22:41:20.665Z,14.00
2022-08-28T22:43:49.775Z,13.30
2022-08-28T22:46:18.654Z,14.48
2022-08-28T22:48:46.035Z,15.15
2022-08-28T22:51:18.255Z,14.70
2022-08-28T22:53:45.459Z,14.43
2022-08-28T22:56:12.916Z,12.50
2022-08-28T22:58:40.393Z,13.07
2022-08-28T23:01:18.107Z,14.13
2022-08-28T23:03:46.085Z,14.40
2022-08-28T23:06:13.847Z,15.57
2022-08-28T23:08:40.585Z,12.50
2022-08-28T23:11:07.315Z,15.48
2022-08-28T23:13:34.252Z,12.60
2022-08-28T23:16:02.234Z,16.83
2022-08-28T23:18:29.889Z,13.65
2022-08-28T23:20:57.332Z,13.63
2022-08-28T23:23:24.708Z,14.63
2022-08-28T23:25:51.366Z,13.65
2022-08-28T23:28:19.134Z,15.10
2022-08-28T23:30:49.626Z,14.13
2022-08-28T23:33:23.866Z,15.48
2022-08-28T23:35:51.971Z,13.20
2022-08-28T23:38:19.238Z,13.00
2022-08-28T23:40:48.059Z,14.70
2022-08-28T23:43:15.089Z,13.93
2022-08-28T23:45:43.850Z,16.17
2022-08-28T23:48:11.097Z,14.73
2022-08-28T23:50:40.573Z,14.65
2022-08-28T23:53:08.236Z,14.73
2022-08-28T23:55:36.000Z,14.20
2022-08-28T23:58:03.563Z,12.75
